Time;durP1;ratioP1;P1;durP2;ratioP2;P2;SDS_P1;SDS_P2;PMS_P1;PMS_P2;Temp;Humidity;BMP_temperature;BMP_pressure;BME280_temperature;BME280_humidity;BME280_pressure;Samples;Min_cycle;Max_cycle;Signal;HPM_P1;HPM_P2
2022/12/16 00:01:39;;;;;;;6.17;5.60;;;20.60;57.30;;;;;;4953884;28;20448;-82
2022/12/16 00:04:07;;;;;;;5.20;4.80;;;20.60;57.30;;;;;;4953763;29;20851;-82
2022/12/16 00:06:35;;;;;;;5.17;4.67;;;20.60;57.40;;;;;;4953112;29;20463;-83
2022/12/16 00:09:04;;;;;;;7.70;6.30;;;20.60;57.50;;;;;;4953842;29;20538;-82
2022/12/16 00:11:32;;;;;;;6.33;5.73;;;20.60;57.50;;;;;;4952751;28;20956;-82
2022/12/16 00:14:01;;;;;;;6.13;5.63;;;20.60;57.50;;;;;;4953812;29;20522;-82
2022/12/16 00:16:29;;;;;;;6.70;5.50;;;20.60;57.60;;;;;;4952984;29;20497;-82
2022/12/16 00:18:58;;;;;;;8.07;4.50;;;20.60;57.60;;;;;;4953850;29;20449;-82
2022/12/16 00:21:29;;;;;;;6.17;5.57;;;20.60;57.60;;;;;;4948995;29;20454;-83
2022/12/16 00:23:58;;;;;;;5.30;4.80;;;20.60;57.70;;;;;;4946940;29;20453;-82
2022/12/16 00:26:28;;;;;;;5.57;5.07;;;20.60;57.70;;;;;;4953197;29;20586;-83
2022/12/16 00:28:57;;;;;;;5.13;4.63;;;20.60;57.70;;;;;;4941287;29;20951;-83
2022/12/16 00:31:27;;;;;;;6.77;5.80;;;20.50;57.70;;;;;;4953575;28;20455;-83
2022/12/16 00:33:56;;;;;;;6.00;5.40;;;20.60;57.70;;;;;;4941164;29;20477;-82
2022/12/16 00:36:24;;;;;;;5.03;4.63;;;20.60;57.60;;;;;;4951684;29;20494;-83
2022/12/16 00:38:53;;;;;;;4.60;4.20;;;20.60;57.50;;;;;;4949217;29;20862;-82
2022/12/16 00:41:21;;;;;;;6.23;5.67;;;20.60;57.50;;;;;;4943440;29;20453;-82
2022/12/16 00:43:49;;;;;;;5.03;4.63;;;20.60;57.40;;;;;;4947068;29;20520;-83
2022/12/16 00:46:18;;;;;;;5.50;5.07;;;20.60;57.30;;;;;;4952199;29;20454;-82
2022/12/16 00:48:48;;;;;;;5.50;5.10;;;20.60;57.20;;;;;;4953514;29;20468;-82
2022/12/16 00:51:16;;;;;;;7.30;4.90;;;20.70;57.10;;;;;;4938923;28;20534;-83
2022/12/16 00:53:44;;;;;;;4.97;4.53;;;20.70;57.00;;;;;;4951998;29;20913;-82
2022/12/16 00:56:14;;;;;;;5.03;4.53;;;20.70;56.90;;;;;;4944157;29;20483;-83
2022/12/16 00:58:42;;;;;;;5.80;4.90;;;20.70;56.80;;;;;;4953084;29;20484;-84
2022/12/16 01:01:10;;;;;;;5.37;4.97;;;20.70;56.70;;;;;;4953335;28;20450;-83
2022/12/16 01:03:39;;;;;;;5.20;4.80;;;20.70;56.60;;;;;;4951359;29;20466;-82
2022/12/16 01:06:13;;;;;;;5.70;5.00;;;20.70;56.60;;;;;;4943967;29;20521;-83
2022/12/16 01:08:47;;;;;;;5.50;4.93;;;20.60;56.60;;;;;;4950113;29;20455;-82
2022/12/16 01:11:16;;;;;;;5.30;4.87;;;20.60;56.50;;;;;;4953423;29;20489;-82
2022/12/16 01:13:46;;;;;;;7.67;5.67;;;20.60;56.50;;;;;;4952091;29;20465;-83
2022/12/16 01:16:15;;;;;;;5.40;5.00;;;20.60;56.50;;;;;;4951938;29;20482;-82
2022/12/16 01:18:43;;;;;;;5.70;5.20;;;20.60;56.50;;;;;;4950702;29;20467;-83
2022/12/16 01:21:14;;;;;;;6.97;5.00;;;20.60;56.50;;;;;;4952855;29;20471;-82
2022/12/16 01:23:43;;;;;;;4.73;4.27;;;20.50;56.50;;;;;;4951384;28;20536;-82
2022/12/16 01:26:16;;;;;;;4.60;4.20;;;20.50;56.50;;;;;;4955203;29;20531;-83
2022/12/16 01:28:44;;;;;;;5.67;5.20;;;20.50;56.50;;;;;;4945601;29;20517;-84
2022/12/16 01:31:14;;;;;;;5.33;4.80;;;20.50;56.50;;;;;;4953307;29;20481;-82
2022/12/16 01:33:43;;;;;;;5.20;4.70;;;20.50;56.40;;;;;;4945203;29;20980;-82
2022/12/16 01:36:13;;;;;;;5.50;5.00;;;20.50;56.40;;;;;;4951974;29;20470;-83
2022/12/16 01:38:43;;;;;;;5.27;4.87;;;20.50;56.40;;;;;;4949178;29;20859;-83
2022/12/16 01:41:12;;;;;;;5.20;4.70;;;20.50;56.40;;;;;;4950521;29;20457;-83
2022/12/16 01:43:41;;;;;;;5.43;4.93;;;20.50;56.40;;;;;;4948690;29;20454;-82
2022/12/16 01:46:15;;;;;;;4.93;4.53;;;20.50;56.40;;;;;;4948143;29;20458;-83
2022/12/16 01:48:49;;;;;;;5.27;4.87;;;20.50;56.40;;;;;;4951124;29;20487;-83
2022/12/16 01:51:26;;;;;;;4.60;4.20;;;20.50;56.40;;;;;;4941879;29;20455;-83
2022/12/16 01:53:57;;;;;;;4.97;4.57;;;20.50;56.30;;;;;;4954155;29;20457;-83
2022/12/16 01:56:30;;;;;;;4.83;4.43;;;20.60;56.30;;;;;;4955171;29;20486;-82
2022/12/16 01:58:59;;;;;;;4.53;4.20;;;20.60;56.30;;;;;;4953238;28;20560;-82
2022/12/16 02:01:27;;;;;;;5.30;4.90;;;20.60;56.30;;;;;;4952270;29;20466;-83
2022/12/16 02:04:00;;;;;;;5.00;4.60;;;20.60;56.30;;;;;;4946202;28;20488;-84
2022/12/16 02:06:30;;;;;;;4.80;4.40;;;20.60;56.20;;;;;;4955795;29;20484;-83
2022/12/16 02:09:02;;;;;;;4.90;4.50;;;20.60;56.20;;;;;;4954752;29;20458;-82
2022/12/16 02:11:57;;;;;;;4.73;4.43;;;20.60;56.20;;;;;;4954323;29;20459;-83
2022/12/16 02:14:57;;;;;;;4.77;4.33;;;20.60;56.20;;;;;;4954756;29;20449;-83
2022/12/16 02:17:32;;;;;;;4.97;4.47;;;20.60;56.20;;;;;;4952368;29;20495;-83
2022/12/16 02:20:32;;;;;;;5.20;4.80;;;20.60;56.20;;;;;;4948431;29;20498;-83
2022/12/16 02:23:17;;;;;;;5.00;4.60;;;20.60;56.20;;;;;;4948152;29;20839;-83
2022/12/16 02:26:04;;;;;;;4.80;4.40;;;20.60;56.20;;;;;;4955211;29;20463;-83
2022/12/16 02:28:57;;;;;;;5.43;5.03;;;20.60;56.20;;;;;;4947337;29;20466;-83
2022/12/16 02:31:33;;;;;;;5.43;4.93;;;20.60;56.20;;;;;;4951523;29;20457;-82
2022/12/16 02:34:12;;;;;;;4.60;4.20;;;20.50;56.20;;;;;;4954492;28;21008;-83
2022/12/16 02:36:56;;;;;;;4.67;4.27;;;20.50;56.20;;;;;;4954945;28;20482;-83
2022/12/16 02:39:31;;;;;;;4.47;4.07;;;20.50;56.20;;;;;;4955062;29;20488;-82
2022/12/16 02:42:08;;;;;;;4.20;3.80;;;20.50;56.20;;;;;;4954772;29;20451;-83
2022/12/16 02:44:44;;;;;;;4.93;4.53;;;20.50;56.10;;;;;;4954886;29;20465;-82
2022/12/16 02:47:14;;;;;;;6.30;5.87;;;20.50;56.10;;;;;;4941020;29;20467;-82
2022/12/16 02:49:53;;;;;;;5.50;4.37;;;20.50;56.10;;;;;;4948626;29;20457;-82
2022/12/16 02:52:24;;;;;;;4.60;4.30;;;20.50;56.10;;;;;;4951114;28;20461;-83
2022/12/16 02:54:55;;;;;;;4.30;3.90;;;20.50;56.10;;;;;;4951390;29;20832;-83
2022/12/16 02:57:45;;;;;;;5.30;4.80;;;20.50;56.10;;;;;;4948024;29;20486;-82
2022/12/16 03:00:18;;;;;;;5.60;5.20;;;20.50;56.10;;;;;;4952816;29;20547;-82
2022/12/16 03:02:56;;;;;;;4.27;3.87;;;20.50;56.00;;;;;;4952637;29;20463;-83
2022/12/16 03:05:30;;;;;;;4.77;4.37;;;20.50;56.00;;;;;;4952151;29;20449;-83
2022/12/16 03:08:01;;;;;;;4.87;4.47;;;20.50;56.00;;;;;;4953794;29;20477;-82
2022/12/16 03:10:36;;;;;;;5.73;5.23;;;20.50;56.00;;;;;;4953642;29;20535;-83
2022/12/16 03:13:05;;;;;;;4.63;4.23;;;20.50;55.90;;;;;;4954935;29;20464;-84
2022/12/16 03:15:35;;;;;;;4.80;4.40;;;20.50;55.90;;;;;;4951076;29;20470;-83
2022/12/16 03:18:07;;;;;;;5.53;5.13;;;20.50;55.80;;;;;;4947229;29;20484;-82
2022/12/16 03:20:40;;;;;;;4.67;3.83;;;20.50;55.80;;;;;;4949929;29;20457;-83
2022/12/16 03:23:12;;;;;;;4.37;4.07;;;20.50;55.70;;;;;;4953291;28;20813;-83
2022/12/16 03:25:43;;;;;;;5.00;4.60;;;20.50;55.70;;;;;;4944085;29;20462;-83
2022/12/16 03:28:23;;;;;;;5.07;4.67;;;20.50;55.70;;;;;;4951998;29;20490;-83
2022/12/16 03:30:57;;;;;;;5.10;4.70;;;20.50;55.60;;;;;;4951152;29;21039;-83
2022/12/16 03:33:30;;;;;;;4.63;4.23;;;20.50;55.60;;;;;;4952014;29;20534;-83
2022/12/16 03:36:05;;;;;;;4.50;4.20;;;20.50;55.60;;;;;;4944147;29;20463;-83
2022/12/16 03:38:34;;;;;;;4.90;4.43;;;20.50;55.60;;;;;;4951126;29;20495;-83
2022/12/16 03:41:04;;;;;;;4.47;4.17;;;20.50;55.50;;;;;;4954523;28;20464;-82
2022/12/16 03:43:33;;;;;;;4.40;4.10;;;20.50;55.50;;;;;;4953792;28;20452;-83
2022/12/16 03:46:07;;;;;;;4.73;4.33;;;20.50;55.50;;;;;;4950440;29;20492;-82
2022/12/16 03:48:37;;;;;;;4.40;4.00;;;20.50;55.50;;;;;;4948341;29;20546;-83
2022/12/16 03:51:05;;;;;;;5.03;4.63;;;20.50;55.50;;;;;;4949890;29;20443;-83
2022/12/16 03:53:33;;;;;;;4.77;4.37;;;20.50;55.50;;;;;;4951458;29;20451;-83
2022/12/16 03:56:02;;;;;;;4.70;3.83;;;20.50;55.50;;;;;;4952774;29;20992;-82
2022/12/16 03:58:30;;;;;;;4.60;4.30;;;20.50;55.50;;;;;;4953345;29;21017;-83
2022/12/16 04:00:59;;;;;;;5.10;4.70;;;20.50;55.50;;;;;;4953169;29;20565;-83
2022/12/16 04:03:27;;;;;;;5.07;4.57;;;20.50;55.60;;;;;;4953752;29;21005;-83
2022/12/16 04:05:57;;;;;;;4.33;4.03;;;20.50;55.60;;;;;;4952110;29;20867;-83
2022/12/16 04:08:25;;;;;;;4.50;4.13;;;20.50;55.70;;;;;;4953605;28;20468;-84
2022/12/16 04:25:16;;;;;;;4.20;3.90;;;20.50;55.80;;;;;;4891457;29;20900;-82
2022/12/16 04:27:45;;;;;;;5.00;4.50;;;20.50;55.80;;;;;;4926331;29;20508;-82
2022/12/16 04:30:20;;;;;;;4.60;4.27;;;20.50;55.70;;;;;;4940436;29;20455;-83
